world map with UHE marked

UHE - Airport

This information may not be accurate or current and is not valid for navigation or flight planning. No warranty of fitness for any purpose is made or implied.

flag of Zlínflag of Czech Republic

Donate via PayPal

Additional information is available on the NEW Great Circle Mapper

Location
City:  Uherske Hradiste, Zlín, Czech Republic
Name:Kunovice Airport
ICAO / IATA:LKKU / UHE

Details
Type:Airport (Aerodrome, Airfield)
Use:Public/Civil
Latitude:49°01'46"N (49.029444)
Longitude:17°26'23"E (17.439722)
Datum:WGS 1984
Elevation:581 ft (177 m)
Runways:3
Longest:6562 × 98 ft (2000 × 30 m)

Time
Timezone:UTC+1 (DST+4)
Local Time:

Weather
METAR:LKKU  041400Z 04006KT 9999 FEW031 SCT037 BKN044 01/M01 Q1030

Related Locations
Nearby:
Farthest:CHT: 11684 mi / 18803 km
Waitangi [Tuuta], CIT, NZ

Find:

   beyond  
but within

Other Information
Maps:
Sources:

  


 


Great Circle Mapper   Great Circle Mapper
Great Circle Mapper FAQ   Great Circle Mapper FAQ
  Karl's Home Page
KLS˛   KLS˛ Home
   GC on Facebook
Airlines of the World   Airlines of the World
Donate via PayPal


Copyright © 2004-2019, Karl L. Swartz. All rights reserved.
All trademarks mentioned herein belong to their respective owners.

Please see credits for attribution and copyright information.

Karl Swartz <karl@kls2.com>
  Powered by FreeBSD
Valid HTML 4.01!
Labeled with ICRA
hCard Microformat
Geo Microformat